Time;durP1;ratioP1;P1;durP2;ratioP2;P2;SDS_P1;SDS_P2;PMS_P1;PMS_P2;Temp;Humidity;BMP_temperature;BMP_pressure;BME280_temperature;BME280_humidity;BME280_pressure;Samples;Min_cycle;Max_cycle;Signal;HPM_P1;HPM_P2
2022/01/11 00:00:00;;;;;;;46.30;23.23;;;;;;;3.71;100.00;102384.19;7396053;19;20425;-46
2022/01/11 00:02:31;;;;;;;44.73;22.40;;;;;;;3.55;100.00;102380.19;7394155;19;20423;-48
2022/01/11 00:05:03;;;;;;;45.87;21.70;;;;;;;3.45;100.00;102383.50;7398663;19;20399;-50
2022/01/11 00:07:35;;;;;;;45.23;21.17;;;;;;;3.53;100.00;102380.78;7395359;19;20420;-46
2022/01/11 00:10:07;;;;;;;52.37;23.70;;;;;;;3.59;100.00;102387.34;7398381;19;20398;-46
2022/01/11 00:12:36;;;;;;;40.03;20.17;;;;;;;3.63;100.00;102386.91;7394924;19;20407;-46
2022/01/11 00:15:07;;;;;;;45.97;22.03;;;;;;;3.65;100.00;102393.06;7399008;19;20394;-48
2022/01/11 00:17:37;;;;;;;48.97;21.47;;;;;;;3.45;100.00;102387.69;7394319;19;20884;-46
2022/01/11 00:20:12;;;;;;;43.53;21.47;;;;;;;3.11;100.00;102395.50;7396787;19;20398;-48
2022/01/11 00:24:26;;;;;;;45.60;22.37;;;;;;;3.54;100.00;102391.13;7394723;19;20435;-48
2022/01/11 00:25:31;;;;;;;41.23;20.03;;;;;;;3.43;100.00;102400.28;7398577;19;20479;-51
2022/01/11 00:28:01;;;;;;;39.77;19.30;;;;;;;3.23;100.00;102390.72;7393218;19;20430;-47
2022/01/11 00:30:33;;;;;;;43.17;21.57;;;;;;;3.41;100.00;102394.16;7398663;19;20447;-50
2022/01/11 00:33:07;;;;;;;39.80;20.23;;;;;;;3.55;100.00;102392.94;7394431;19;20782;-48
2022/01/11 00:35:44;;;;;;;49.43;21.70;;;;;;;3.49;100.00;102397.44;7398904;19;20443;-53
2022/01/11 00:38:16;;;;;;;37.07;19.83;;;;;;;3.54;100.00;102401.31;7394002;19;20427;-46
2022/01/11 00:40:47;;;;;;;38.50;19.17;;;;;;;3.89;100.00;102411.47;7397537;19;20380;-49
2022/01/11 00:43:17;;;;;;;37.70;18.77;;;;;;;3.91;100.00;102411.63;7394210;19;20498;-46
2022/01/11 00:45:47;;;;;;;40.30;19.43;;;;;;;3.88;100.00;102409.69;7399021;19;20412;-48
2022/01/11 00:48:17;;;;;;;37.83;18.70;;;;;;;3.81;100.00;102420.06;7393860;19;20423;-47
2022/01/11 00:50:49;;;;;;;35.80;18.03;;;;;;;3.58;100.00;102425.53;7399228;19;20452;-51
2022/01/11 00:53:19;;;;;;;65.90;32.50;;;;;;;3.65;100.00;102420.25;7394186;19;20409;-48
2022/01/11 00:55:49;;;;;;;61.70;29.33;;;;;;;3.57;100.00;102426.25;7398981;19;20482;-48
2022/01/11 00:58:20;;;;;;;40.00;20.20;;;;;;;3.69;100.00;102434.22;7391708;19;20423;-50
2022/01/11 01:00:50;;;;;;;47.10;24.67;;;;;;;3.72;100.00;102430.31;7398103;19;20398;-48
2022/01/11 01:03:20;;;;;;;38.60;19.80;;;;;;;3.91;100.00;102432.06;7395140;19;20482;-46
2022/01/11 01:05:52;;;;;;;41.87;20.63;;;;;;;3.65;100.00;102433.91;7398742;19;20845;-50
2022/01/11 01:08:22;;;;;;;37.43;20.00;;;;;;;3.71;100.00;102441.28;7393412;19;20868;-47
2022/01/11 01:10:51;;;;;;;44.40;22.27;;;;;;;3.53;100.00;102445.47;7398350;19;20397;-50
2022/01/11 01:13:23;;;;;;;44.83;23.63;;;;;;;3.89;100.00;102448.88;7394916;19;20433;-47
2022/01/11 01:15:55;;;;;;;42.40;21.10;;;;;;;4.07;100.00;102452.31;7398935;19;20451;-47
2022/01/11 01:18:26;;;;;;;39.50;20.90;;;;;;;4.32;100.00;102446.97;7393236;19;20411;-46
2022/01/11 01:20:59;;;;;;;36.20;18.50;;;;;;;4.19;100.00;102461.16;7396751;19;20379;-48
2022/01/11 01:23:29;;;;;;;43.37;19.70;;;;;;;4.13;100.00;102460.56;7398022;19;20423;-48
2022/01/11 01:25:59;;;;;;;38.50;19.33;;;;;;;4.05;100.00;102454.72;7398544;19;20447;-49
2022/01/11 01:28:29;;;;;;;37.53;19.50;;;;;;;4.32;100.00;102459.75;7394218;19;20419;-47
2022/01/11 01:31:01;;;;;;;33.17;16.40;;;;;;;4.50;100.00;102468.25;7401684;19;20404;-51
2022/01/11 01:33:31;;;;;;;30.47;16.57;;;;;;;4.40;100.00;102473.22;7397237;19;20419;-53
2022/01/11 01:36:09;;;;;;;33.30;17.13;;;;;;;4.27;100.00;102483.97;7402152;19;20932;-49
2022/01/11 01:38:39;;;;;;;31.13;17.23;;;;;;;4.28;100.00;102485.75;7395388;19;20680;-51
2022/01/11 01:41:15;;;;;;;35.50;17.20;;;;;;;4.32;100.00;102492.97;7393337;19;20399;-48
2022/01/11 01:43:45;;;;;;;28.90;16.43;;;;;;;4.26;100.00;102502.63;7397695;19;20396;-46
2022/01/11 01:46:15;;;;;;;33.83;17.67;;;;;;;4.16;100.00;102493.16;7394890;19;20659;-50
2022/01/11 01:48:45;;;;;;;27.27;14.70;;;;;;;3.83;100.00;102494.25;7400006;19;20670;-50
2022/01/11 01:51:18;;;;;;;27.07;14.50;;;;;;;3.72;100.00;102495.78;7394840;19;20439;-51
2022/01/11 01:53:50;;;;;;;27.47;14.40;;;;;;;3.38;100.00;102499.38;7398408;19;20479;-49
2022/01/11 01:56:21;;;;;;;30.53;16.07;;;;;;;3.32;100.00;102498.75;7393963;19;20448;-46
2022/01/11 01:58:51;;;;;;;29.40;15.53;;;;;;;3.40;100.00;102498.63;7398332;19;20428;-48
2022/01/11 02:01:21;;;;;;;30.37;16.77;;;;;;;3.29;100.00;102495.00;7393674;19;20467;-45
2022/01/11 02:03:51;;;;;;;29.00;15.67;;;;;;;3.55;100.00;102497.59;7397763;19;20402;-51
2022/01/11 02:06:24;;;;;;;32.47;15.60;;;;;;;3.53;100.00;102493.97;7394007;19;20386;-50
2022/01/11 02:08:53;;;;;;;35.13;16.33;;;;;;;3.68;100.00;102496.25;7395754;19;20416;-47
2022/01/11 02:11:25;;;;;;;31.70;15.27;;;;;;;3.76;100.00;102503.88;7398670;19;20506;-51
2022/01/11 02:16:36;;;;;;;33.00;15.73;;;;;;;3.34;100.00;102504.91;7399623;19;20428;-46
2022/01/11 02:19:07;;;;;;;29.37;15.23;;;;;;;3.38;100.00;102509.59;7402262;19;20411;-49
2022/01/11 02:21:39;;;;;;;31.70;16.50;;;;;;;3.59;100.00;102503.91;7399335;19;20868;-47
2022/01/11 02:24:09;;;;;;;27.03;14.63;;;;;;;3.75;100.00;102506.28;7404633;19;20908;-47
2022/01/11 02:26:38;;;;;;;32.53;16.53;;;;;;;3.45;100.00;102512.75;7400214;19;20419;-48
2022/01/11 02:29:08;;;;;;;31.87;16.23;;;;;;;3.44;100.00;102509.28;7402303;19;20467;-47
2022/01/11 02:31:38;;;;;;;29.27;15.30;;;;;;;3.30;100.00;102499.34;7400405;19;20429;-46
2022/01/11 02:34:08;;;;;;;27.40;14.93;;;;;;;3.35;100.00;102499.06;7404268;19;20397;-50
2022/01/11 02:36:40;;;;;;;30.10;15.73;;;;;;;3.23;100.00;102500.41;7400127;19;20433;-47
2022/01/11 02:39:10;;;;;;;28.20;14.90;;;;;;;3.24;100.00;102495.44;7401828;19;20418;-48
2022/01/11 02:41:51;;;;;;;34.10;16.80;;;;;;;3.28;100.00;102501.75;7399366;19;21024;-48
2022/01/11 02:44:20;;;;;;;32.30;15.07;;;;;;;3.27;100.00;102499.06;7403681;19;20388;-48
2022/01/11 02:46:49;;;;;;;29.43;14.60;;;;;;;3.07;100.00;102503.97;7398330;19;20412;-49
2022/01/11 02:49:19;;;;;;;32.60;17.03;;;;;;;3.15;100.00;102503.84;7401206;19;20423;-46
2022/01/11 02:51:51;;;;;;;32.23;16.13;;;;;;;3.00;100.00;102508.28;7399948;19;20404;-47
2022/01/11 02:54:20;;;;;;;35.03;16.77;;;;;;;3.34;100.00;102506.59;7403599;19;20398;-45
2022/01/11 02:56:50;;;;;;;60.57;30.07;;;;;;;3.31;100.00;102501.16;7399390;19;20415;-49
2022/01/11 02:59:19;;;;;;;58.03;27.87;;;;;;;3.48;100.00;102500.25;7401106;19;20503;-49
2022/01/11 03:01:49;;;;;;;51.30;23.70;;;;;;;3.41;100.00;102497.88;7398876;19;20471;-48
2022/01/11 03:04:24;;;;;;;44.70;22.23;;;;;;;3.31;100.00;102504.63;7403148;19;20382;-47
2022/01/11 03:06:56;;;;;;;30.87;15.90;;;;;;;3.12;100.00;102504.41;7399177;19;20879;-46
2022/01/11 03:09:31;;;;;;;31.13;16.27;;;;;;;3.26;100.00;102507.44;7400779;19;20858;-48
2022/01/11 03:12:00;;;;;;;32.40;15.87;;;;;;;3.29;100.00;102513.78;7399418;19;20737;-46
2022/01/11 03:14:30;;;;;;;34.63;16.17;;;;;;;3.10;100.00;102513.59;7403155;19;20713;-49
2022/01/11 03:16:59;;;;;;;32.53;15.10;;;;;;;2.87;100.00;102516.38;7398544;19;20706;-48
2022/01/11 03:19:28;;;;;;;43.27;17.83;;;;;;;2.90;100.00;102516.66;7400895;19;20419;-46
2022/01/11 03:22:01;;;;;;;34.37;16.60;;;;;;;2.65;100.00;102519.28;7395472;19;20411;-46
2022/01/11 03:24:30;;;;;;;44.70;18.03;;;;;;;2.48;100.00;102515.91;7402598;19;20410;-46
2022/01/11 03:26:59;;;;;;;38.17;17.27;;;;;;;2.40;100.00;102514.19;7398627;19;20422;-48
2022/01/11 03:29:29;;;;;;;37.60;17.40;;;;;;;2.59;100.00;102517.00;7403903;19;20769;-51
2022/01/11 03:31:58;;;;;;;37.97;17.63;;;;;;;2.62;100.00;102513.88;7400528;19;20454;-47
2022/01/11 03:34:28;;;;;;;44.07;18.67;;;;;;;2.74;100.00;102510.03;7402246;19;20391;-47
2022/01/11 03:37:00;;;;;;;42.07;18.47;;;;;;;2.83;100.00;102516.03;7398042;19;20932;-48
2022/01/11 03:39:32;;;;;;;38.27;17.93;;;;;;;2.93;100.00;102522.09;7404226;19;20420;-47
2022/01/11 03:42:02;;;;;;;40.67;16.60;;;;;;;3.12;100.00;102509.53;7397282;19;20426;-46
2022/01/11 03:44:31;;;;;;;35.60;17.80;;;;;;;3.05;100.00;102518.22;7401930;19;20439;-51
2022/01/11 03:47:01;;;;;;;38.90;16.83;;;;;;;2.78;100.00;102522.31;7397285;19;20417;-49
2022/01/11 03:49:30;;;;;;;43.40;18.80;;;;;;;2.68;100.00;102524.69;7400212;19;20411;-49
2022/01/11 03:52:02;;;;;;;44.57;19.10;;;;;;;2.92;100.00;102520.28;7400173;19;20439;-49
2022/01/11 03:54:44;;;;;;;40.27;17.83;;;;;;;3.10;100.00;102524.69;7401452;19;20384;-51
2022/01/11 03:57:14;;;;;;;45.10;18.27;;;;;;;2.76;100.00;102516.19;7396478;19;20475;-49
2022/01/11 03:59:43;;;;;;;43.67;18.90;;;;;;;2.51;100.00;102533.16;7399838;19;20415;-48
2022/01/11 04:02:13;;;;;;;41.27;18.87;;;;;;;2.81;100.00;102531.94;7399683;19;20418;-46
2022/01/11 04:04:43;;;;;;;40.80;20.13;;;;;;;2.98;100.00;102526.00;7400920;19;20397;-49
2022/01/11 04:07:15;;;;;;;45.03;19.93;;;;;;;2.98;100.00;102526.00;7396827;19;20692;-45
2022/01/11 04:09:45;;;;;;;52.33;20.07;;;;;;;2.86;100.00;102528.22;7399552;19;20407;-45
2022/01/11 04:12:14;;;;;;;46.30;21.60;;;;;;;2.70;100.00;102524.13;7397123;19;20742;-51
2022/01/11 04:14:44;;;;;;;36.97;18.03;;;;;;;2.93;100.00;102522.09;7400659;19;20396;-50
2022/01/11 04:17:13;;;;;;;54.07;21.70;;;;;;;2.92;100.00;102520.28;7396183;19;20408;-47
2022/01/11 04:19:43;;;;;;;51.93;20.80;;;;;;;2.91;100.00;102528.66;7401250;19;20431;-49
2022/01/11 04:22:15;;;;;;;43.90;20.50;;;;;;;2.87;100.00;102521.47;7395487;19;20454;-46
2022/01/11 04:24:45;;;;;;;50.53;23.17;;;;;;;3.01;100.00;102525.41;7400413;19;20402;-49
2022/01/11 04:27:14;;;;;;;58.83;25.77;;;;;;;2.90;100.00;102521.75;7396014;19;20505;-46
2022/01/11 04:29:44;;;;;;;61.37;27.00;;;;;;;3.09;100.00;102522.88;7398943;19;20419;-49
2022/01/11 04:32:13;;;;;;;56.57;23.47;;;;;;;3.16;100.00;102526.03;7396831;19;20491;-50
2022/01/11 04:34:43;;;;;;;57.13;25.27;;;;;;;3.01;100.00;102522.84;7399070;19;20742;-48
2022/01/11 04:37:15;;;;;;;56.50;24.80;;;;;;;3.21;100.00;102519.75;7393134;19;20419;-48
2022/01/11 04:39:45;;;;;;;57.03;23.23;;;;;;;3.06;100.00;102525.13;7398820;19;20471;-48
2022/01/11 04:42:14;;;;;;;61.70;25.53;;;;;;;3.00;100.00;102524.50;7395393;19;20439;-47
2022/01/11 04:44:44;;;;;;;60.00;24.40;;;;;;;3.18;100.00;102525.44;7399192;19;20400;-48
2022/01/11 04:47:13;;;;;;;51.60;23.00;;;;;;;3.17;100.00;102522.75;7395469;19;20426;-49
2022/01/11 04:49:43;;;;;;;55.30;23.60;;;;;;;2.95;100.00;102530.78;7398395;19;20490;-48
2022/01/11 04:52:12;;;;;;;56.20;23.93;;;;;;;3.12;100.00;102521.41;7395721;19;20474;-45
2022/01/11 04:54:44;;;;;;;53.13;23.83;;;;;;;3.26;100.00;102523.66;7399326;19;20402;-47
2022/01/11 04:57:34;;;;;;;56.93;24.23;;;;;;;3.22;100.00;102527.56;7395481;19;20414;-49
2022/01/11 05:00:03;;;;;;;62.57;24.57;;;;;;;3.25;100.00;102524.44;7398075;19;20704;-48
2022/01/11 05:02:33;;;;;;;54.30;23.80;;;;;;;3.49;100.00;102514.84;7394873;19;20431;-46
2022/01/11 05:05:02;;;;;;;55.20;23.43;;;;;;;3.33;100.00;102523.53;7399328;19;20685;-52
2022/01/11 05:07:32;;;;;;;56.10;25.20;;;;;;;3.54;100.00;102521.28;7394138;19;20431;-47
2022/01/11 05:10:07;;;;;;;61.53;25.17;;;;;;;3.52;100.00;102517.69;7397339;19;20407;-49
2022/01/11 05:12:38;;;;;;;69.73;25.97;;;;;;;3.27;100.00;102530.56;7395220;19;20430;-46
2022/01/11 05:15:09;;;;;;;62.63;24.70;;;;;;;3.22;100.00;102534.31;7399078;19;20387;-47
2022/01/11 05:17:40;;;;;;;60.33;23.20;;;;;;;3.01;100.00;102530.50;7394410;19;20416;-50
2022/01/11 05:20:11;;;;;;;57.93;25.10;;;;;;;3.13;100.00;102528.28;7398806;19;20460;-48
2022/01/11 05:22:42;;;;;;;67.37;24.17;;;;;;;3.21;100.00;102527.41;7393525;19;20437;-48
2022/01/11 05:25:15;;;;;;;64.17;25.50;;;;;;;2.82;100.00;102529.53;7403432;19;20388;-46
2022/01/11 05:27:45;;;;;;;68.30;24.60;;;;;;;3.05;100.00;102538.63;7394377;19;20415;-46
2022/01/11 05:30:18;;;;;;;60.20;23.00;;;;;;;3.29;100.00;102534.19;7398695;19;20641;-47
2022/01/11 05:32:48;;;;;;;66.10;24.10;;;;;;;3.32;100.00;102538.69;7393716;19;20437;-48
2022/01/11 05:35:19;;;;;;;71.67;24.50;;;;;;;3.44;100.00;102529.69;7398739;19;20463;-48
2022/01/11 05:37:49;;;;;;;65.43;24.33;;;;;;;3.53;100.00;102534.81;7391967;19;20681;-48
2022/01/11 05:40:22;;;;;;;70.87;24.17;;;;;;;3.40;100.00;102536.91;7403062;19;20387;-47
2022/01/11 05:42:53;;;;;;;64.10;24.83;;;;;;;3.40;100.00;102531.78;7392425;19;20766;-49
2022/01/11 05:45:22;;;;;;;59.73;24.17;;;;;;;3.22;100.00;102531.75;7400258;19;20384;-48
2022/01/11 05:47:52;;;;;;;67.43;23.33;;;;;;;3.09;100.00;102529.63;7401017;19;20411;-51
2022/01/11 05:50:24;;;;;;;59.67;25.67;;;;;;;3.19;100.00;102531.47;7405692;19;20380;-47
2022/01/11 05:52:53;;;;;;;57.73;23.33;;;;;;;3.32;100.00;102529.38;7404665;19;20946;-52
2022/01/11 05:55:25;;;;;;;68.23;27.67;;;;;;;3.54;100.00;102531.50;7405474;19;20384;-48
2022/01/11 05:57:55;;;;;;;67.20;23.40;;;;;;;3.51;100.00;102546.53;7403762;19;20449;-48
2022/01/11 06:00:24;;;;;;;88.97;35.87;;;;;;;3.77;100.00;102540.53;7405471;19;20383;-47
2022/01/11 06:02:55;;;;;;;133.00;53.00;;;;;;;3.61;100.00;102544.16;7400276;19;20778;-46
2022/01/11 06:05:26;;;;;;;82.47;34.47;;;;;;;3.47;100.00;102547.88;7405141;19;20403;-49
2022/01/11 06:07:55;;;;;;;64.17;24.83;;;;;;;3.57;100.00;102549.69;7400987;19;20419;-48
2022/01/11 06:10:27;;;;;;;64.43;25.50;;;;;;;3.47;100.00;102549.50;7405196;19;20456;-46
2022/01/11 06:12:57;;;;;;;64.23;22.03;;;;;;;3.25;100.00;102549.94;7400544;19;20503;-50
2022/01/11 06:15:29;;;;;;;50.43;19.70;;;;;;;3.07;100.00;102546.41;7404765;19;20443;-47
2022/01/11 06:17:59;;;;;;;57.17;20.83;;;;;;;2.75;100.00;102549.16;7398140;19;20415;-53
2022/01/11 06:20:28;;;;;;;69.23;22.90;;;;;;;2.81;100.00;102548.16;7404555;19;20383;-50
2022/01/11 06:22:58;;;;;;;68.60;22.53;;;;;;;2.91;100.00;102549.97;7399694;19;20435;-48
2022/01/11 06:25:30;;;;;;;67.80;22.90;;;;;;;2.93;100.00;102560.34;7404627;19;20895;-49
2022/01/11 06:28:01;;;;;;;66.30;23.50;;;;;;;3.00;100.00;102559.31;7401301;19;20872;-48
2022/01/11 06:30:31;;;;;;;59.00;20.53;;;;;;;2.76;100.00;102556.09;7404533;19;20410;-50
2022/01/11 06:33:00;;;;;;;52.30;19.00;;;;;;;2.69;100.00;102564.72;7400443;19;20422;-49
2022/01/11 06:35:30;;;;;;;59.30;21.53;;;;;;;2.76;100.00;102559.50;7404238;19;20451;-46
2022/01/11 06:38:00;;;;;;;63.53;21.87;;;;;;;2.73;100.00;102561.75;7398368;19;20734;-45
2022/01/11 06:40:32;;;;;;;65.00;23.07;;;;;;;2.82;100.00;102564.34;7404182;19;20398;-46
2022/01/11 06:43:02;;;;;;;59.17;21.23;;;;;;;2.65;100.00;102565.16;7396905;19;20864;-46
2022/01/11 06:45:31;;;;;;;67.50;22.17;;;;;;;2.79;100.00;102569.13;7404155;19;20388;-51
2022/01/11 06:48:02;;;;;;;46.27;17.63;;;;;;;2.53;100.00;102572.44;7398808;19;20446;-45
2022/01/11 06:50:32;;;;;;;53.23;20.53;;;;;;;2.51;100.00;102577.38;7403631;19;20399;-52
2022/01/11 06:53:02;;;;;;;48.07;19.27;;;;;;;2.47;100.00;102590.56;7399232;19;20877;-47
2022/01/11 06:55:34;;;;;;;54.50;19.93;;;;;;;2.52;100.00;102579.19;7403053;19;20468;-46
2022/01/11 06:58:07;;;;;;;52.70;20.10;;;;;;;2.58;100.00;102585.66;7397906;19;20426;-50
2022/01/11 07:00:37;;;;;;;45.20;18.80;;;;;;;2.50;100.00;102590.88;7403409;19;20388;-46
2022/01/11 07:03:06;;;;;;;58.50;20.70;;;;;;;2.55;100.00;102589.72;7398586;19;20428;-51
2022/01/11 07:05:36;;;;;;;48.30;18.40;;;;;;;2.42;100.00;102600.25;7403137;19;20704;-46
2022/01/11 07:08:06;;;;;;;64.60;21.23;;;;;;;2.36;100.00;102601.28;7397672;19;20427;-47
2022/01/11 07:10:38;;;;;;;57.27;20.83;;;;;;;2.49;100.00;102593.25;7403079;19;20857;-47
2022/01/11 07:13:08;;;;;;;59.00;19.47;;;;;;;2.56;100.00;102595.69;7399339;19;20414;-47
2022/01/11 07:15:38;;;;;;;53.13;19.83;;;;;;;2.58;100.00;102599.31;7402764;19;20658;-51
2022/01/11 07:18:09;;;;;;;47.27;18.70;;;;;;;2.50;100.00;102598.50;7398085;19;20433;-46
2022/01/11 07:20:42;;;;;;;51.03;19.13;;;;;;;2.52;100.00;102599.56;7402295;19;20444;-46
2022/01/11 07:23:12;;;;;;;56.47;18.90;;;;;;;2.48;100.00;102601.63;7398115;19;20411;-52
2022/01/11 07:25:44;;;;;;;121.67;51.77;;;;;;;2.59;100.00;102597.66;7402310;19;20388;-50
2022/01/11 07:28:15;;;;;;;54.40;22.17;;;;;;;2.60;100.00;102605.47;7398511;19;20439;-49
2022/01/11 07:30:45;;;;;;;58.70;21.27;;;;;;;2.73;100.00;102605.09;7404771;19;20467;-48
2022/01/11 07:33:14;;;;;;;45.17;17.90;;;;;;;2.52;100.00;102599.56;7398355;19;20414;-46
2022/01/11 07:35:44;;;;;;;49.20;18.90;;;;;;;2.50;100.00;102607.78;7402273;19;20672;-50
2022/01/11 07:38:14;;;;;;;49.27;17.90;;;;;;;2.46;100.00;102600.59;7396149;19;20498;-47
2022/01/11 07:40:46;;;;;;;46.17;19.00;;;;;;;2.49;100.00;102603.44;7406581;19;20463;-49
2022/01/11 07:43:16;;;;;;;45.00;18.73;;;;;;;2.53;100.00;102601.41;7397814;19;20426;-47
2022/01/11 07:45:45;;;;;;;47.03;18.33;;;;;;;2.55;100.00;102604.06;7403517;19;20408;-46
2022/01/11 07:48:15;;;;;;;45.00;16.63;;;;;;;2.43;100.00;102608.81;7396874;19;20446;-47
2022/01/11 07:50:44;;;;;;;53.00;19.07;;;;;;;2.45;100.00;102625.16;7401753;19;20400;-48
2022/01/11 07:53:14;;;;;;;53.50;20.80;;;;;;;2.41;100.00;102612.84;7397866;19;20427;-46
2022/01/11 07:55:46;;;;;;;40.90;15.03;;;;;;;2.28;100.00;102623.38;7401019;19;20455;-46
2022/01/11 07:58:15;;;;;;;53.83;19.80;;;;;;;2.34;100.00;102615.47;7396012;19;20423;-46
2022/01/11 08:00:45;;;;;;;43.90;15.43;;;;;;;2.31;100.00;102628.81;7404141;19;20396;-46
2022/01/11 08:03:15;;;;;;;37.87;16.50;;;;;;;2.17;100.00;102619.72;7397653;19;20431;-47
2022/01/11 08:05:45;;;;;;;47.07;16.40;;;;;;;2.19;100.00;102637.72;7401023;19;20655;-48
2022/01/11 08:08:14;;;;;;;55.43;14.23;;;;;;;2.09;100.00;102630.72;7393980;19;20414;-46
2022/01/11 08:10:46;;;;;;;48.67;17.30;;;;;;;2.14;100.00;102639.75;7401021;19;20660;-45
2022/01/11 08:13:16;;;;;;;45.20;16.83;;;;;;;2.19;100.00;102638.59;7397208;19;20455;-45
2022/01/11 08:15:46;;;;;;;43.13;18.17;;;;;;;2.15;100.00;102631.38;7400887;19;20392;-48
2022/01/11 08:18:16;;;;;;;40.47;13.60;;;;;;;2.03;100.00;102633.53;7395595;19;20411;-46
2022/01/11 08:20:45;;;;;;;38.87;15.63;;;;;;;1.99;100.00;102629.75;7400439;19;20447;-47
2022/01/11 08:23:15;;;;;;;31.93;12.50;;;;;;;1.88;100.00;102635.34;7397003;19;20425;-48
2022/01/11 08:25:47;;;;;;;30.87;11.77;;;;;;;1.85;100.00;102635.91;7398704;19;20391;-46
2022/01/11 08:28:17;;;;;;;42.07;14.00;;;;;;;1.88;100.00;102642.97;7397650;19;20507;-47
2022/01/11 08:30:46;;;;;;;35.83;12.10;;;;;;;1.73;100.00;102643.13;7400544;19;20406;-48
2022/01/11 08:33:16;;;;;;;34.23;14.07;;;;;;;1.74;100.00;102632.22;7396145;19;20511;-47
2022/01/11 08:35:46;;;;;;;48.87;14.60;;;;;;;1.88;100.00;102630.25;7401805;19;20480;-48
2022/01/11 08:38:15;;;;;;;34.93;12.90;;;;;;;1.80;100.00;102633.63;7397146;19;20440;-47
2022/01/11 08:40:47;;;;;;;44.43;14.57;;;;;;;1.85;100.00;102632.47;7402705;19;20465;-48
2022/01/11 08:43:17;;;;;;;41.80;13.43;;;;;;;1.89;100.00;102637.13;7399367;19;20527;-47
2022/01/11 08:45:47;;;;;;;30.87;11.57;;;;;;;1.83;100.00;102639.03;7397695;19;20395;-47
2022/01/11 08:48:17;;;;;;;36.17;12.40;;;;;;;1.79;100.00;102645.44;7391963;19;20439;-48
2022/01/11 08:50:46;;;;;;;34.83;13.63;;;;;;;1.76;100.00;102640.03;7399310;19;20123;-47
2022/01/11 08:53:16;;;;;;;34.37;14.30;;;;;;;1.84;100.00;102643.41;7393729;19;20776;-49
2022/01/11 08:55:48;;;;;;;46.47;16.83;;;;;;;1.90;100.00;102644.06;7401624;19;20857;-47
2022/01/11 08:58:18;;;;;;;45.37;15.93;;;;;;;1.96;100.00;102651.44;7396161;19;20444;-50
2022/01/11 09:00:47;;;;;;;39.87;15.50;;;;;;;2.00;100.00;102649.38;7399374;19;20394;-45
2022/01/11 09:03:17;;;;;;;36.53;14.33;;;;;;;1.96;100.00;102654.91;7395652;19;20446;-46
2022/01/11 09:05:47;;;;;;;41.77;13.60;;;;;;;1.87;100.00;102653.91;7397507;19;20376;-46
2022/01/11 09:08:16;;;;;;;27.70;12.47;;;;;;;1.93;100.00;102653.63;7394473;19;20484;-47
2022/01/11 09:10:50;;;;;;;57.93;16.00;;;;;;;2.01;100.00;102656.28;7401159;19;20849;-46
2022/01/11 09:13:20;;;;;;;43.03;15.73;;;;;;;2.12;100.00;102651.44;7396684;19;20448;-51
2022/01/11 09:15:50;;;;;;;37.67;16.00;;;;;;;2.07;100.00;102656.03;7400874;19;20391;-53
2022/01/11 09:18:19;;;;;;;39.60;13.70;;;;;;;2.04;100.00;102654.81;7393831;19;20421;-48
2022/01/11 09:20:49;;;;;;;40.90;13.37;;;;;;;2.15;100.00;102649.19;7404983;19;20391;-48
2022/01/11 09:23:18;;;;;;;43.93;15.83;;;;;;;2.22;100.00;102651.69;7404265;19;20447;-46
2022/01/11 09:25:50;;;;;;;35.20;13.93;;;;;;;2.15;100.00;102661.94;7403950;19;20400;-46
2022/01/11 09:28:20;;;;;;;40.10;14.80;;;;;;;2.18;100.00;102667.38;7403506;19;20461;-51
2022/01/11 09:30:49;;;;;;;38.60;14.00;;;;;;;2.14;100.00;102665.22;7410607;19;20859;-49
2022/01/11 09:33:19;;;;;;;32.47;12.97;;;;;;;2.21;100.00;102669.34;7401072;19;20485;-50
2022/01/11 09:35:49;;;;;;;33.23;11.87;;;;;;;2.12;100.00;102671.81;7405726;19;20480;-46
2022/01/11 09:38:18;;;;;;;20.47;8.10;;;;;;;2.11;100.00;102672.56;7396368;19;20440;-46
2022/01/11 09:40:53;;;;;;;37.17;12.23;;;;;;;2.19;100.00;102674.25;7409974;19;20414;-48
2022/01/11 09:43:23;;;;;;;29.73;11.70;;;;;;;2.19;100.00;102669.16;7402145;19;20477;-47
2022/01/11 09:45:54;;;;;;;36.10;12.57;;;;;;;2.20;100.00;102672.63;7403355;19;20459;-47
2022/01/11 09:48:25;;;;;;;25.63;10.43;;;;;;;2.20;100.00;102676.06;7399842;19;20213;-46
2022/01/11 09:50:55;;;;;;;30.13;9.60;;;;;;;2.27;100.00;102668.31;7406199;19;20394;-46
2022/01/11 09:53:25;;;;;;;31.37;12.80;;;;;;;2.32;100.00;102666.28;7401893;19;20413;-47
2022/01/11 09:55:57;;;;;;;35.47;14.73;;;;;;;2.46;100.00;102670.28;7408147;19;20390;-46
2022/01/11 09:58:27;;;;;;;37.90;13.60;;;;;;;2.38;100.00;102679.69;7399839;19;20425;-47
2022/01/11 10:00:56;;;;;;;47.33;12.87;;;;;;;2.33;100.00;102677.38;7405394;19;20388;-46
2022/01/11 10:03:26;;;;;;;36.37;11.57;;;;;;;2.27;100.00;102668.31;7400958;19;20443;-45
2022/01/11 10:05:56;;;;;;;34.40;13.47;;;;;;;2.39;100.00;102670.38;7402964;19;20466;-45
2022/01/11 10:08:28;;;;;;;34.93;12.83;;;;;;;2.34;100.00;102669.91;7398368;19;20418;-48
2022/01/11 10:11:01;;;;;;;38.43;14.27;;;;;;;2.34;100.00;102669.91;7404938;19;20381;-46
2022/01/11 10:13:37;;;;;;;34.93;13.33;;;;;;;2.59;100.00;102662.28;7404111;19;20431;-47
2022/01/11 10:16:23;;;;;;;33.90;13.00;;;;;;;2.55;100.00;102668.72;7402051;19;20657;-47
2022/01/11 10:18:54;;;;;;;34.80;14.67;;;;;;;2.74;100.00;102663.00;7402484;19;20420;-46
2022/01/11 10:21:34;;;;;;;34.27;13.10;;;;;;;2.72;100.00;102667.00;7400170;19;20900;-49
2022/01/11 10:24:22;;;;;;;32.70;14.27;;;;;;;2.75;100.00;102664.78;7404087;19;20391;-51
2022/01/11 10:26:56;;;;;;;34.93;13.17;;;;;;;2.75;100.00;102668.97;7399125;19;20437;-48
2022/01/11 10:29:40;;;;;;;28.80;13.33;;;;;;;2.90;100.00;102679.88;7401835;19;20442;-49
2022/01/11 10:32:15;;;;;;;36.87;13.83;;;;;;;2.84;100.00;102670.81;7398655;19;20407;-48
2022/01/11 10:34:47;;;;;;;35.50;13.50;;;;;;;2.82;100.00;102676.53;7403979;19;20458;-47
2022/01/11 10:37:18;;;;;;;38.67;15.87;;;;;;;2.71;100.00;102672.84;7400235;19;20760;-45
2022/01/11 10:39:47;;;;;;;34.50;13.83;;;;;;;2.82;100.00;102672.31;7401735;19;20916;-50
2022/01/11 10:42:33;;;;;;;39.60;14.20;;;;;;;2.93;100.00;102675.09;7399603;19;20924;-51
2022/01/11 10:45:05;;;;;;;34.70;14.20;;;;;;;2.83;100.00;102675.78;7403581;19;21008;-45
2022/01/11 10:47:37;;;;;;;32.53;14.07;;;;;;;2.92;100.00;102670.75;7396474;19;20419;-47
2022/01/11 10:50:10;;;;;;;30.70;14.27;;;;;;;2.99;100.00;102673.19;7403670;19;20443;-52
2022/01/11 10:52:40;;;;;;;36.67;14.20;;;;;;;3.00;100.00;102676.63;7399109;19;20419;-49
2022/01/11 10:55:14;;;;;;;33.33;13.10;;;;;;;2.87;100.00;102679.56;7403569;19;20663;-47
2022/01/11 10:57:51;;;;;;;28.63;11.00;;;;;;;2.72;100.00;102691.63;7397472;19;20415;-47
2022/01/11 11:00:29;;;;;;;36.50;13.70;;;;;;;2.76;100.00;102679.34;7403110;19;20447;-47
2022/01/11 11:03:02;;;;;;;34.10;12.70;;;;;;;2.84;100.00;102685.25;7400070;19;20426;-49
2022/01/11 11:05:35;;;;;;;31.27;12.50;;;;;;;2.83;100.00;102669.03;7402432;19;20396;-49
2022/01/11 11:08:12;;;;;;;34.70;13.90;;;;;;;2.85;100.00;102671.75;7397933;19;21029;-47
2022/01/11 11:10:46;;;;;;;31.37;11.97;;;;;;;2.84;100.00;102675.94;7402874;19;20459;-50
2022/01/11 11:13:26;;;;;;;31.03;13.70;;;;;;;2.84;100.00;102685.25;7398958;19;20419;-51
2022/01/11 11:15:58;;;;;;;26.87;12.30;;;;;;;2.73;100.00;102681.59;7402922;19;20439;-55
2022/01/11 11:18:35;;;;;;;30.40;12.90;;;;;;;2.77;100.00;102678.59;7399621;19;20427;-48
2022/01/11 11:21:17;;;;;;;25.70;12.03;;;;;;;3.01;100.00;102669.13;7398283;19;20412;-48
2022/01/11 11:23:48;;;;;;;29.83;11.60;;;;;;;3.15;100.00;102669.66;7404670;19;20451;-50
2022/01/11 11:26:18;;;;;;;26.90;11.27;;;;;;;3.04;100.00;102669.47;7396040;19;20420;-49
2022/01/11 11:28:51;;;;;;;28.30;13.20;;;;;;;2.92;100.00;102678.41;7403429;19;20424;-50